Norfolk, Nebraska
Current Conditions -  °F | °C
As of 2:56 AM on Sunday 23 Nov 2014 (Local Time) from KOFK Reporting Station
Haze Haze  
Wind Chill: 51°   Ceiling: Unl
Heat Index: 51°   Visibility: 5mi
Dew Point: 49°   Wind: 12mph
Humidity: 92%   Direction: 190°S
Pressure: 29.43"   Gusts: NA
Location:  42.03°N, 97.41°W
Report Text: KOFK 230856Z AUTO 19010KT 5SM BR FEW012 11/09 A2943 RMK AO2 SLP969 T01060094 58015
Loading
Personal Weather Stations






























Interactive Weather Map New forecast layout! Learn more

10-Day Weather Forecast

Advertisements
Track Severe Weather on mobile